Time;durP1;ratioP1;P1;durP2;ratioP2;P2;SDS_P1;SDS_P2;PMS_P1;PMS_P2;Temp;Humidity;BMP_temperature;BMP_pressure;BME280_temperature;BME280_humidity;BME280_pressure;Samples;Min_cycle;Max_cycle;Signal;HPM_P1;HPM_P2
2022/05/22 00:00:23;;;;;;;8.95;3.75;;;7.90;99.90;;;;;;5051715;28;20044;-46
2022/05/22 00:02:49;;;;;;;11.18;4.22;;;8.60;99.90;;;;;;5051985;28;20047;-50
2022/05/22 00:05:17;;;;;;;7.05;3.67;;;7.70;99.90;;;;;;5051340;28;20037;-47
2022/05/22 00:07:43;;;;;;;4.97;2.65;;;7.80;99.90;;;;;;5052311;28;20110;-45
2022/05/22 00:10:10;;;;;;;6.03;2.45;;;7.70;99.90;;;;;;5052001;28;20068;-47
2022/05/22 00:12:36;;;;;;;3.72;2.03;;;7.60;99.90;;;;;;5050696;28;20042;-47
2022/05/22 00:15:03;;;;;;;4.45;1.98;;;7.70;99.90;;;;;;5053965;28;20048;-47
2022/05/22 00:17:29;;;;;;;5.50;2.40;;;7.60;99.90;;;;;;5054561;28;20045;-47
2022/05/22 00:19:54;;;;;;;7.20;2.60;;;8.30;99.90;;;;;;5056570;28;20051;-47
2022/05/22 00:22:20;;;;;;;5.18;3.22;;;7.60;99.90;;;;;;5055634;28;20548;-45
2022/05/22 00:24:46;;;;;;;7.68;3.13;;;7.50;99.90;;;;;;5054889;28;20025;-50
2022/05/22 00:27:12;;;;;;;9.27;3.60;;;7.50;99.90;;;;;;5055917;28;20051;-49
2022/05/22 00:29:39;;;;;;;8.32;3.40;;;8.20;99.90;;;;;;5054557;28;20028;-47
2022/05/22 00:32:07;;;;;;;7.53;3.58;;;8.50;99.90;;;;;;5054292;28;20056;-47
2022/05/22 00:34:35;;;;;;;10.70;3.35;;;7.20;99.90;;;;;;5053778;28;20158;-50
2022/05/22 00:37:01;;;;;;;7.40;3.60;;;7.30;99.90;;;;;;5054669;28;22593;-50
2022/05/22 00:39:27;;;;;;;8.40;3.92;;;7.30;99.90;;;;;;5054504;28;20036;-50
2022/05/22 00:41:56;;;;;;;7.63;3.63;;;7.40;99.90;;;;;;5054937;28;20041;-49
2022/05/22 00:44:22;;;;;;;7.97;4.30;;;7.30;99.90;;;;;;5054339;28;20041;-45
2022/05/22 00:46:48;;;;;;;7.40;3.92;;;7.30;99.90;;;;;;5054921;28;20097;-45
2022/05/22 00:49:18;;;;;;;10.52;3.53;;;7.40;99.90;;;;;;5055647;28;20140;-46
2022/05/22 00:51:53;;;;;;;8.38;4.15;;;7.50;99.90;;;;;;5054588;28;20536;-44
2022/05/22 00:54:33;;;;;;;12.77;4.25;;;7.50;99.90;;;;;;5056455;28;20106;-46
2022/05/22 00:57:24;;;;;;;11.40;5.55;;;7.20;99.90;;;;;;5054045;28;20409;-46
2022/05/22 00:59:55;;;;;;;9.88;5.18;;;8.90;99.90;;;;;;5054764;28;20577;-48
2022/05/22 01:02:21;;;;;;;12.57;4.28;;;8.50;99.90;;;;;;5055428;28;20507;-49
2022/05/22 01:04:49;;;;;;;7.82;3.88;;;8.70;99.90;;;;;;5054373;28;20270;-49
2022/05/22 01:07:17;;;;;;;10.07;5.05;;;7.20;99.90;;;;;;5055687;28;20090;-47
2022/05/22 01:09:42;;;;;;;6.03;2.63;;;7.20;99.90;;;;;;5055523;28;20075;-50
2022/05/22 01:12:22;;;;;;;7.43;2.95;;;7.30;99.90;;;;;;5055051;28;20080;-49
2022/05/22 01:14:50;;;;;;;24.02;4.57;;;7.10;99.90;;;;;;5054455;28;20052;-47
2022/05/22 01:17:16;;;;;;;7.85;4.10;;;7.00;99.90;;;;;;5054957;28;20467;-48
2022/05/22 01:20:00;;;;;;;5.82;3.40;;;7.00;99.90;;;;;;5053407;28;20495;-48
2022/05/22 01:22:27;;;;;;;8.40;3.72;;;6.90;99.90;;;;;;5053771;28;20044;-45
2022/05/22 01:24:53;;;;;;;5.22;2.72;;;6.90;99.90;;;;;;5055088;28;20037;-46
2022/05/22 01:27:21;;;;;;;7.47;3.30;;;7.00;99.90;;;;;;5054414;28;20055;-47
2022/05/22 01:29:47;;;;;;;35.20;4.70;;;7.00;99.90;;;;;;5054362;28;20044;-50
2022/05/22 01:32:14;;;;;;;4.85;2.53;;;6.90;99.90;;;;;;5053200;28;20059;-47
2022/05/22 01:34:40;;;;;;;13.95;4.53;;;6.90;99.90;;;;;;5054300;28;20040;-49
2022/05/22 01:37:06;;;;;;;7.65;3.63;;;6.80;99.90;;;;;;5054493;28;20037;-47
2022/05/22 01:39:35;;;;;;;5.72;3.30;;;8.70;99.90;;;;;;5053573;28;20401;-45
2022/05/22 01:42:01;;;;;;;6.72;3.70;;;6.80;99.90;;;;;;5053535;28;20045;-48
2022/05/22 01:44:27;;;;;;;9.27;3.25;;;7.10;99.90;;;;;;5051618;28;20102;-47
2022/05/22 01:46:52;;;;;;;9.70;3.88;;;6.60;99.90;;;;;;5053911;28;20044;-47
2022/05/22 01:49:18;;;;;;;5.60;3.33;;;8.40;99.90;;;;;;5054006;28;20048;-43
2022/05/22 01:51:44;;;;;;;3.83;2.22;;;6.50;99.90;;;;;;5052474;28;20048;-48
2022/05/22 01:54:09;;;;;;;4.93;2.20;;;7.60;99.90;;;;;;5053000;28;20044;-45
2022/05/22 01:56:36;;;;;;;4.93;2.40;;;6.80;99.90;;;;;;5054322;28;20041;-45
2022/05/22 01:59:04;;;;;;;4.72;2.50;;;7.80;99.90;;;;;;5052438;28;20093;-44
2022/05/22 02:01:30;;;;;;;4.43;2.40;;;6.70;99.90;;;;;;5052519;28;20578;-50
2022/05/22 02:03:56;;;;;;;5.68;2.30;;;6.60;99.90;;;;;;5052265;28;20123;-46
2022/05/22 02:06:21;;;;;;;6.43;2.75;;;7.50;99.90;;;;;;5052959;28;20382;-45
2022/05/22 02:08:48;;;;;;;106.85;4.93;;;6.70;99.90;;;;;;5052714;28;20040;-44
2022/05/22 02:11:13;;;;;;;5.10;3.25;;;6.60;99.90;;;;;;5052188;28;20045;-44
2022/05/22 02:13:45;;;;;;;5.35;2.33;;;6.70;99.90;;;;;;5053156;28;20046;-46
2022/05/22 02:16:13;;;;;;;7.72;2.50;;;7.30;99.90;;;;;;5053324;28;20052;-46
2022/05/22 02:18:38;;;;;;;5.22;2.50;;;6.40;99.90;;;;;;5053894;28;20075;-47
2022/05/22 02:21:05;;;;;;;6.15;2.55;;;7.30;99.90;;;;;;5053335;28;20146;-46
2022/05/22 02:23:33;;;;;;;4.28;2.58;;;6.40;99.90;;;;;;5052657;28;20048;-49
2022/05/22 02:25:59;;;;;;;5.95;3.15;;;7.10;99.90;;;;;;5054513;28;21265;-48
2022/05/22 02:28:26;;;;;;;4.40;2.78;;;6.30;99.90;;;;;;5053208;28;20136;-48
2022/05/22 02:30:55;;;;;;;5.03;2.67;;;6.40;99.90;;;;;;5052418;28;20068;-48
2022/05/22 02:33:21;;;;;;;5.22;2.88;;;6.40;99.90;;;;;;5051877;28;20094;-47
2022/05/22 02:35:47;;;;;;;7.72;3.00;;;7.00;99.90;;;;;;5053168;28;20043;-47
2022/05/22 02:38:15;;;;;;;6.53;2.83;;;7.30;99.90;;;;;;5053074;28;20536;-45
2022/05/22 02:40:41;;;;;;;7.60;2.75;;;5.50;99.90;;;;;;5052156;28;20040;-45
2022/05/22 02:43:07;;;;;;;8.00;2.00;;;6.30;99.90;;;;;;5051214;28;20078;-47
2022/05/22 02:45:35;;;;;;;4.47;1.50;;;6.10;99.90;;;;;;5052711;28;20052;-50
2022/05/22 02:48:01;;;;;;;5.32;1.90;;;7.00;99.90;;;;;;5052649;28;20040;-48
2022/05/22 02:50:30;;;;;;;6.38;2.00;;;6.20;99.90;;;;;;5052678;28;20101;-48
2022/05/22 02:52:56;;;;;;;5.15;2.15;;;6.10;99.90;;;;;;5052494;28;20036;-47
2022/05/22 02:55:22;;;;;;;6.10;2.30;;;6.10;99.90;;;;;;5052768;28;20094;-50
2022/05/22 02:57:48;;;;;;;6.20;2.78;;;6.10;99.90;;;;;;5052102;28;20230;-47
2022/05/22 03:00:18;;;;;;;4.20;2.40;;;7.20;99.90;;;;;;5052965;28;20124;-48
2022/05/22 03:02:46;;;;;;;3.92;2.28;;;6.30;99.90;;;;;;5052265;28;20045;-47
2022/05/22 03:05:12;;;;;;;7.22;3.05;;;6.60;99.90;;;;;;5051728;28;20028;-47
2022/05/22 03:07:38;;;;;;;4.50;2.03;;;6.00;99.90;;;;;;5051180;28;20045;-47
2022/05/22 03:10:10;;;;;;;4.72;1.90;;;6.70;99.90;;;;;;5051402;28;22671;-47
2022/05/22 03:12:36;;;;;;;5.07;2.10;;;6.20;99.90;;;;;;5052043;28;20064;-48
2022/05/22 03:15:05;;;;;;;7.75;2.50;;;5.90;99.90;;;;;;5052883;28;20135;-46
2022/05/22 03:17:34;;;;;;;10.73;2.65;;;6.30;99.90;;;;;;5051699;28;20405;-48
2022/05/22 03:20:00;;;;;;;9.82;2.65;;;6.20;99.90;;;;;;5049886;28;20032;-46
2022/05/22 03:22:26;;;;;;;5.78;2.30;;;5.90;99.90;;;;;;5051748;28;20048;-48
2022/05/22 03:24:54;;;;;;;9.43;2.90;;;6.10;99.90;;;;;;5052919;28;20063;-46
2022/05/22 03:27:20;;;;;;;5.28;3.17;;;6.20;99.90;;;;;;5052791;28;20585;-48
2022/05/22 03:29:49;;;;;;;6.50;2.90;;;6.80;99.90;;;;;;5052610;28;20127;-47
2022/05/22 03:32:14;;;;;;;6.13;2.78;;;6.20;99.90;;;;;;5052644;28;20665;-48
2022/05/22 03:34:41;;;;;;;5.88;2.75;;;6.30;99.90;;;;;;5052629;28;20570;-49
2022/05/22 03:37:10;;;;;;;9.40;3.03;;;6.20;99.90;;;;;;5053043;28;20123;-47
2022/05/22 03:39:36;;;;;;;6.57;3.20;;;6.20;99.90;;;;;;5050652;28;20044;-51
2022/05/22 03:42:02;;;;;;;6.20;3.80;;;6.20;99.90;;;;;;5051202;28;20054;-47
2022/05/22 03:44:29;;;;;;;13.73;4.35;;;6.20;99.90;;;;;;5050956;28;20723;-49
2022/05/22 03:46:55;;;;;;;14.68;4.63;;;6.40;99.90;;;;;;5052938;28;20037;-49
2022/05/22 03:49:20;;;;;;;9.38;3.50;;;7.50;99.90;;;;;;5052150;28;20455;-48
2022/05/22 03:51:46;;;;;;;55.08;5.30;;;6.50;99.90;;;;;;5055630;28;20043;-49
2022/05/22 03:54:12;;;;;;;9.43;3.67;;;6.60;99.90;;;;;;5056585;28;20028;-49
2022/05/22 03:56:39;;;;;;;7.68;4.20;;;7.70;99.90;;;;;;5056001;28;20659;-46
2022/05/22 03:59:05;;;;;;;7.13;4.28;;;6.80;99.90;;;;;;5054901;28;20052;-51
2022/05/22 04:01:31;;;;;;;8.63;4.68;;;6.80;99.90;;;;;;5055025;28;20045;-50
2022/05/22 04:03:56;;;;;;;9.05;5.00;;;7.00;99.90;;;;;;5056103;28;20037;-49
2022/05/22 04:06:22;;;;;;;8.80;5.05;;;7.00;99.90;;;;;;5054457;28;20040;-51
2022/05/22 04:08:49;;;;;;;6.53;4.88;;;7.10;99.90;;;;;;5054828;28;20048;-49
2022/05/22 04:11:17;;;;;;;14.57;6.70;;;7.30;99.90;;;;;;5054278;28;21677;-50
2022/05/22 04:13:43;;;;;;;12.45;6.35;;;7.40;99.90;;;;;;5055001;28;20036;-49
2022/05/22 04:16:11;;;;;;;13.23;7.18;;;7.70;99.90;;;;;;5054423;28;20045;-51
2022/05/22 04:18:37;;;;;;;19.95;7.68;;;7.60;99.90;;;;;;5054307;28;20083;-48
2022/05/22 04:21:03;;;;;;;12.50;6.63;;;7.70;99.90;;;;;;5055171;28;20143;-49
2022/05/22 04:26:17;;;;;;;14.75;7.45;;;7.50;99.90;;;;;;5055319;28;20218;-48
2022/05/22 04:28:42;;;;;;;14.32;7.38;;;8.00;99.90;;;;;;5053824;28;20044;-46
2022/05/22 04:31:08;;;;;;;16.17;7.90;;;8.00;99.90;;;;;;5054253;28;20536;-47
2022/05/22 04:33:34;;;;;;;15.93;7.82;;;9.20;99.90;;;;;;5054049;28;20052;-46
2022/05/22 04:36:00;;;;;;;14.98;7.45;;;8.20;99.90;;;;;;5054238;28;20041;-46
2022/05/22 04:38:26;;;;;;;16.52;7.00;;;8.40;99.90;;;;;;5055359;28;20416;-46
2022/05/22 04:40:57;;;;;;;13.57;7.75;;;8.70;99.90;;;;;;5055062;28;20497;-49
2022/05/22 04:43:24;;;;;;;19.45;7.15;;;8.60;99.90;;;;;;5054663;28;20063;-46
2022/05/22 04:45:50;;;;;;;17.02;7.43;;;9.10;99.90;;;;;;5054548;28;20037;-45
2022/05/22 04:48:19;;;;;;;16.35;7.78;;;9.90;99.90;;;;;;5054394;28;20052;-46
2022/05/22 04:50:46;;;;;;;18.42;8.63;;;8.70;99.90;;;;;;5053679;28;20608;-46
2022/05/22 04:53:13;;;;;;;21.60;7.93;;;8.90;99.90;;;;;;5055337;28;20044;-51
2022/05/22 04:55:38;;;;;;;16.30;8.00;;;8.90;99.90;;;;;;5054558;28;20186;-47
2022/05/22 04:58:04;;;;;;;16.10;7.88;;;8.90;99.90;;;;;;5054721;28;20588;-45
2022/05/22 05:00:30;;;;;;;14.73;8.40;;;9.10;99.90;;;;;;5055267;28;20041;-44
2022/05/22 05:02:55;;;;;;;22.08;8.30;;;9.20;99.90;;;;;;5055375;28;20049;-50
2022/05/22 05:05:21;;;;;;;18.23;8.30;;;9.30;99.90;;;;;;5054540;28;20052;-50
2022/05/22 05:07:47;;;;;;;17.02;8.50;;;9.20;99.90;;;;;;5055273;28;20223;-46
2022/05/22 05:10:13;;;;;;;24.63;8.55;;;9.60;99.90;;;;;;5055828;28;20704;-48
2022/05/22 05:12:40;;;;;;;23.75;9.27;;;9.70;99.90;;;;;;5052834;28;20513;-51
2022/05/22 05:15:08;;;;;;;18.38;8.55;;;9.50;99.90;;;;;;5054172;28;20552;-49
2022/05/22 05:17:34;;;;;;;20.42;8.60;;;9.80;99.90;;;;;;5054997;28;20454;-46
2022/05/22 05:20:03;;;;;;;20.00;8.68;;;10.00;99.90;;;;;;5054805;28;20047;-46
2022/05/22 05:22:32;;;;;;;18.58;8.13;;;9.90;99.90;;;;;;5053318;28;20048;-49
2022/05/22 05:24:58;;;;;;;22.05;8.60;;;10.20;99.90;;;;;;5052771;28;20041;-48
2022/05/22 05:27:23;;;;;;;23.80;8.90;;;10.20;99.90;;;;;;5053995;28;20778;-48
2022/05/22 05:29:49;;;;;;;17.58;8.35;;;11.30;99.90;;;;;;5054151;28;20041;-48
2022/05/22 05:32:19;;;;;;;15.90;8.63;;;11.10;99.90;;;;;;5052770;28;20044;-49
2022/05/22 05:34:44;;;;;;;26.05;9.95;;;10.70;99.90;;;;;;5053091;28;20052;-50
2022/05/22 05:37:12;;;;;;;24.40;9.25;;;11.00;99.90;;;;;;5052996;28;20268;-49
2022/05/22 05:39:38;;;;;;;21.27;10.45;;;11.10;99.90;;;;;;5053364;28;20135;-50
2022/05/22 05:42:04;;;;;;;23.80;9.10;;;13.50;99.90;;;;;;5051303;28;20059;-48
2022/05/22 05:44:32;;;;;;;19.55;9.18;;;11.50;99.90;;;;;;5052458;28;20039;-46
2022/05/22 05:46:57;;;;;;;24.40;9.25;;;10.70;99.90;;;;;;5052883;28;20133;-52
2022/05/22 05:49:23;;;;;;;23.95;9.57;;;11.90;99.90;;;;;;5053931;28;20383;-47
2022/05/22 05:51:51;;;;;;;18.45;8.80;;;13.00;99.90;;;;;;5052552;28;20493;-50
2022/05/22 05:54:18;;;;;;;20.63;9.27;;;12.20;99.90;;;;;;5053145;28;20045;-50
2022/05/22 05:56:44;;;;;;;21.85;9.43;;;12.50;99.90;;;;;;5053612;28;20048;-51
2022/05/22 05:59:10;;;;;;;18.83;8.98;;;12.30;99.90;;;;;;5052660;28;20125;-50
2022/05/22 06:01:36;;;;;;;19.35;9.38;;;12.70;99.90;;;;;;5053065;28;20044;-49
2022/05/22 06:04:02;;;;;;;21.20;8.90;;;12.50;99.90;;;;;;5052597;28;20052;-49
2022/05/22 06:06:28;;;;;;;21.80;8.98;;;12.70;99.90;;;;;;5053738;28;20052;-49
2022/05/22 06:08:55;;;;;;;17.88;8.20;;;14.90;99.90;;;;;;5053604;28;20398;-52
2022/05/22 06:11:21;;;;;;;16.50;7.63;;;13.00;99.90;;;;;;5053708;28;20783;-51
2022/05/22 06:13:47;;;;;;;21.38;7.40;;;13.50;99.90;;;;;;5052858;28;20090;-51
2022/05/22 06:16:13;;;;;;;17.45;7.15;;;13.40;99.90;;;;;;5052859;28;20044;-47
2022/05/22 06:18:39;;;;;;;20.52;7.13;;;13.60;99.90;;;;;;5053687;28;20071;-51
2022/05/22 06:21:15;;;;;;;22.73;7.78;;;13.90;99.90;;;;;;5053496;28;20147;-50
2022/05/22 06:23:40;;;;;;;16.95;6.97;;;15.10;99.90;;;;;;5053348;28;20131;-47
2022/05/22 06:26:10;;;;;;;16.80;6.57;;;14.90;99.90;;;;;;5053640;28;20599;-45
2022/05/22 06:28:36;;;;;;;19.83;6.82;;;15.40;99.90;;;;;;5053416;28;20465;-47
2022/05/22 06:31:04;;;;;;;14.32;6.30;;;15.10;99.90;;;;;;5053101;28;20835;-48
2022/05/22 06:33:30;;;;;;;16.75;6.97;;;15.20;99.90;;;;;;5051757;28;20132;-47
2022/05/22 06:35:58;;;;;;;18.80;6.45;;;16.00;99.90;;;;;;5053093;28;20516;-46
2022/05/22 06:41:11;;;;;;;15.43;5.63;;;15.10;99.90;;;;;;5051801;28;20048;-47
2022/05/22 06:43:37;;;;;;;17.60;6.05;;;14.90;99.90;;;;;;5050451;28;20374;-48
2022/05/22 06:46:04;;;;;;;19.83;6.72;;;15.20;99.90;;;;;;5052229;28;20129;-46
2022/05/22 06:48:30;;;;;;;14.10;5.30;;;17.40;99.90;;;;;;5050940;28;20044;-44
2022/05/22 06:50:56;;;;;;;15.75;6.10;;;16.60;99.90;;;;;;5050755;28;20045;-48
2022/05/22 06:53:22;;;;;;;15.88;5.10;;;16.50;99.90;;;;;;5050797;28;20052;-47
2022/05/22 06:55:48;;;;;;;15.90;4.30;;;19.40;99.90;;;;;;5050762;28;20155;-51
2022/05/22 06:58:14;;;;;;;17.52;4.75;;;18.70;99.90;;;;;;5052003;28;20409;-46
2022/05/22 07:00:40;;;;;;;12.43;4.22;;;19.40;99.90;;;;;;5050628;28;20047;-47
2022/05/22 07:03:06;;;;;;;14.07;4.53;;;20.30;99.90;;;;;;5051646;28;20032;-52
2022/05/22 07:05:32;;;;;;;15.13;4.07;;;21.90;99.90;;;;;;5051492;28;20094;-49
2022/05/22 07:07:58;;;;;;;13.02;3.45;;;21.90;99.90;;;;;;5051234;28;20509;-53
2022/05/22 07:11:38;;;;;;;11.48;3.50;;;23.20;99.90;;;;;;5051835;28;20455;-49
2022/05/22 07:13:17;;;;;;;12.77;3.35;;;22.30;99.90;;;;;;5051652;28;20050;-52
2022/05/22 07:15:42;;;;;;;11.38;3.40;;;22.70;99.90;;;;;;5051587;28;20044;-51
2022/05/22 07:18:08;;;;;;;11.80;3.22;;;23.20;99.90;;;;;;5051496;28;20070;-50
2022/05/22 07:20:37;;;;;;;10.70;3.70;;;23.90;99.90;;;;;;5051270;28;20037;-49
2022/05/22 07:23:03;;;;;;;11.13;2.72;;;24.10;99.90;;;;;;5051794;28;20040;-50
2022/05/22 07:25:28;;;;;;;947.55;841.33;;;24.10;99.90;;;;;;5055818;28;20040;-49
2022/05/22 07:27:56;;;;;;;868.40;779.70;;;25.60;99.90;;;;;;5057225;28;20074;-51
2022/05/22 07:30:21;;;;;;;723.88;664.45;;;24.50;99.90;;;;;;5055543;28;20135;-51
2022/05/22 07:32:47;;;;;;;765.60;690.55;;;24.50;99.90;;;;;;5056078;28;20167;-51
2022/05/22 07:35:13;;;;;;;788.30;709.05;;;24.50;99.90;;;;;;5057396;28;20054;-51
2022/05/22 07:37:38;;;;;;;949.30;819.55;;;25.30;99.90;;;;;;5055631;28;20050;-47
2022/05/22 07:40:04;;;;;;;796.83;718.28;;;25.50;99.90;;;;;;5054829;28;20046;-49
2022/05/22 07:42:30;;;;;;;941.95;758.85;;;25.90;98.10;;;;;;5055570;28;20408;-51
2022/05/22 07:44:56;;;;;;;884.92;787.47;;;26.10;96.10;;;;;;5056102;28;20052;-52
2022/05/22 07:47:21;;;;;;;783.20;695.00;;;25.50;95.20;;;;;;5054946;28;20063;-51
2022/05/22 07:52:31;;;;;;;868.67;788.20;;;25.70;92.90;;;;;;5055621;28;20854;-52
2022/05/22 07:54:59;;;;;;;596.78;534.05;;;25.70;92.50;;;;;;5057056;28;20044;-49
2022/05/22 07:57:25;;;;;;;630.83;566.50;;;25.70;92.30;;;;;;5056111;28;20039;-48
2022/05/22 07:59:51;;;;;;;135.80;105.30;;;26.00;93.30;;;;;;5055024;28;20040;-51
2022/05/22 08:02:18;;;;;;;667.20;606.22;;;25.90;93.50;;;;;;5054660;28;20637;-52
2022/05/22 08:04:44;;;;;;;774.25;706.13;;;26.10;92.20;;;;;;5054973;28;20048;-51
2022/05/22 08:07:11;;;;;;;741.88;675.72;;;26.20;91.60;;;;;;5054900;28;20044;-51
2022/05/22 08:09:37;;;;;;;743.13;677.05;;;27.30;91.60;;;;;;5053626;28;20151;-49
2022/05/22 08:12:03;;;;;;;683.75;625.42;;;25.90;90.80;;;;;;5056078;28;20545;-52
2022/05/22 08:14:29;;;;;;;571.45;525.65;;;25.30;91.00;;;;;;5054390;28;20045;-50
2022/05/22 08:16:54;;;;;;;461.40;419.15;;;24.90;91.40;;;;;;5047842;28;20044;-50
2022/05/22 08:19:21;;;;;;;472.50;428.05;;;24.50;93.10;;;;;;5054552;28;20052;-52
2022/05/22 08:21:46;;;;;;;456.17;414.98;;;23.90;93.60;;;;;;5054740;28;20041;-50
2022/05/22 08:24:12;;;;;;;92.75;80.75;;;23.70;93.80;;;;;;5054843;28;20033;-49
2022/05/22 08:26:38;;;;;;;37.75;29.88;;;25.50;96.10;;;;;;5053699;28;20049;-49
2022/05/22 08:29:04;;;;;;;36.38;23.08;;;23.40;95.40;;;;;;5054476;28;20044;-48
2022/05/22 08:31:30;;;;;;;52.40;33.90;;;23.60;95.70;;;;;;5055126;28;20127;-48
2022/05/22 08:33:56;;;;;;;52.30;35.33;;;24.30;95.10;;;;;;5053933;28;20067;-47
2022/05/22 08:36:22;;;;;;;78.40;68.60;;;24.40;94.10;;;;;;5053953;28;20037;-46
2022/05/22 08:38:51;;;;;;;49.92;38.38;;;24.50;93.50;;;;;;5055089;28;20119;-50
2022/05/22 08:41:45;;;;;;;22.08;9.85;;;23.90;94.20;;;;;;5053786;28;20075;-51
2022/05/22 08:44:14;;;;;;;13.52;5.97;;;24.90;94.80;;;;;;5053427;28;20118;-49
2022/05/22 08:47:01;;;;;;;8.75;3.10;;;23.10;96.10;;;;;;5054864;28;20044;-47
2022/05/22 08:49:45;;;;;;;6.95;1.98;;;22.80;96.20;;;;;;5054392;28;20421;-50
2022/05/22 08:52:28;;;;;;;10.15;2.70;;;21.90;97.40;;;;;;5053651;28;20101;-47
2022/05/22 08:55:17;;;;;;;10.77;2.78;;;22.20;99.90;;;;;;5054659;28;20044;-51
2022/05/22 09:00:40;;;;;;;9.18;2.65;;;20.80;99.90;;;;;;5031541;28;20350;-49
2022/05/22 09:03:17;;;;;;;7.63;2.30;;;21.10;99.90;;;;;;5032095;28;20049;-49
2022/05/22 09:05:45;;;;;;;10.13;2.40;;;21.80;99.90;;;;;;5031055;28;20049;-53
2022/05/22 09:08:40;;;;;;;10.95;2.70;;;22.40;99.90;;;;;;5030390;28;20583;-52
2022/05/22 09:11:09;;;;;;;6.28;1.88;;;22.50;99.90;;;;;;4972633;28;20054;-46
2022/05/22 09:14:07;;;;;;;8.70;2.28;;;22.00;99.90;;;;;;4971260;28;20069;-52
2022/05/22 09:17:18;;;;;;;9.93;2.45;;;21.50;99.90;;;;;;4972122;28;20038;-50
2022/05/22 09:19:53;;;;;;;9.80;2.50;;;21.50;99.90;;;;;;4966947;28;20136;-48
2022/05/22 09:22:50;;;;;;;9.13;2.50;;;22.10;99.90;;;;;;4954585;28;20113;-48
2022/05/22 09:25:53;;;;;;;9.27;2.10;;;21.10;99.90;;;;;;4875060;29;20056;-51
2022/05/22 09:28:31;;;;;;;9.60;2.05;;;21.30;99.90;;;;;;4876741;29;20052;-52
2022/05/22 09:31:22;;;;;;;10.80;2.45;;;21.20;99.90;;;;;;4876667;29;20060;-48
2022/05/22 09:34:03;;;;;;;9.80;2.33;;;21.30;99.90;;;;;;4874930;29;20104;-51
2022/05/22 09:36:52;;;;;;;8.13;2.10;;;20.70;99.90;;;;;;4876350;29;20052;-49
2022/05/22 09:39:31;;;;;;;9.68;2.38;;;20.40;99.90;;;;;;4875604;29;20068;-49
2022/05/22 09:42:21;;;;;;;11.40;6.13;;;20.30;99.90;;;;;;4875907;29;20052;-49
2022/05/22 09:45:26;;;;;;;759.22;687.80;;;20.60;99.90;;;;;;4875213;29;20067;-52
2022/05/22 09:48:17;;;;;;;657.50;604.65;;;21.20;99.90;;;;;;4928666;28;20101;-53
2022/05/22 09:51:07;;;;;;;715.63;660.55;;;21.30;99.90;;;;;;4951678;28;20543;-53
2022/05/22 09:53:51;;;;;;;693.45;638.75;;;21.60;99.90;;;;;;4951328;28;20043;-54
2022/05/22 09:56:55;;;;;;;705.10;650.67;;;21.50;99.90;;;;;;4950361;28;20059;-55
2022/05/22 09:59:59;;;;;;;627.15;581.05;;;21.90;99.90;;;;;;4952230;28;20503;-56
2022/05/22 10:02:56;;;;;;;745.47;682.90;;;21.60;99.90;;;;;;4910010;28;20539;-56
2022/05/22 10:05:35;;;;;;;767.75;703.30;;;21.30;99.90;;;;;;4934833;28;20062;-56
2022/05/22 10:08:12;;;;;;;786.30;718.13;;;21.20;99.90;;;;;;4920333;28;20061;-56
2022/05/22 10:10:56;;;;;;;685.70;632.35;;;21.20;99.90;;;;;;4936782;28;20074;-56
2022/05/22 10:14:12;;;;;;;731.95;673.20;;;21.20;99.90;;;;;;4937175;28;20870;-56
2022/05/22 10:17:13;;;;;;;736.55;678.35;;;21.30;99.90;;;;;;4921097;29;20051;-57
2022/05/22 10:19:48;;;;;;;689.30;636.47;;;21.50;99.90;;;;;;4920342;29;20047;-56
2022/05/22 10:22:16;;;;;;;668.35;616.05;;;21.40;99.90;;;;;;4921075;29;20055;-55
2022/05/22 10:25:23;;;;;;;1650.90;999.90;;;21.50;99.90;;;;;;4920499;29;20055;-57
2022/05/22 10:28:10;;;;;;;816.47;739.58;;;21.30;99.90;;;;;;4919483;29;20576;-56
2022/05/22 10:30:47;;;;;;;904.00;816.13;;;21.70;99.90;;;;;;4917519;29;20435;-57
2022/05/22 10:33:50;;;;;;;1006.25;882.65;;;21.70;99.90;;;;;;4918192;29;20048;-56
2022/05/22 10:36:22;;;;;;;1072.38;890.85;;;21.80;99.60;;;;;;4901874;29;21319;-56
2022/05/22 10:39:10;;;;;;;730.63;667.33;;;21.90;99.90;;;;;;4996362;28;20122;-56
2022/05/22 10:44:49;;;;;;;569.47;376.83;;;22.00;99.90;;;;;;5026076;28;20654;-56
2022/05/22 10:47:29;;;;;;;1228.82;868.97;;;22.10;98.40;;;;;;5027201;28;20501;-55
2022/05/22 10:49:56;;;;;;;1160.70;884.20;;;22.10;96.10;;;;;;5028342;28;20053;-55
2022/05/22 10:52:25;;;;;;;883.85;800.38;;;22.00;97.40;;;;;;5040034;28;20051;-54
2022/05/22 10:54:54;;;;;;;760.15;690.58;;;23.10;99.90;;;;;;5052583;28;20047;-52
2022/05/22 10:57:29;;;;;;;936.70;840.03;;;22.00;99.20;;;;;;5052058;28;20032;-53
2022/05/22 10:59:56;;;;;;;871.40;787.03;;;22.10;99.40;;;;;;5053300;28;20513;-50
2022/05/22 11:02:27;;;;;;;907.60;805.83;;;22.50;99.90;;;;;;5052174;28;20040;-51
2022/05/22 11:04:55;;;;;;;1043.82;850.92;;;22.20;99.00;;;;;;5049794;28;20051;-52
2022/05/22 11:07:47;;;;;;;1130.10;896.88;;;22.00;99.90;;;;;;5051338;28;20090;-51
2022/05/22 11:10:25;;;;;;;864.95;785.83;;;21.30;99.90;;;;;;5052313;28;20568;-54
2022/05/22 11:13:12;;;;;;;662.55;560.45;;;21.00;99.90;;;;;;5051496;28;20036;-54
2022/05/22 11:15:42;;;;;;;904.53;728.47;;;20.60;99.90;;;;;;5051056;28;20033;-51
2022/05/22 11:18:27;;;;;;;937.67;698.53;;;20.30;99.90;;;;;;5052018;28;20052;-52
2022/05/22 11:21:03;;;;;;;745.85;587.30;;;20.30;99.90;;;;;;5050975;28;20037;-48
2022/05/22 11:24:10;;;;;;;413.17;351.05;;;20.30;99.90;;;;;;5051543;28;20055;-50
2022/05/22 11:27:01;;;;;;;108.43;93.13;;;20.80;99.90;;;;;;5050660;28;20043;-48
2022/05/22 11:29:48;;;;;;;13.70;12.05;;;21.00;99.90;;;;;;5053070;28;20037;-48
2022/05/22 11:32:34;;;;;;;14.27;12.60;;;21.20;99.90;;;;;;5051350;28;20135;-50
2022/05/22 11:35:31;;;;;;;396.42;329.60;;;21.30;99.90;;;;;;5051923;28;20049;-49
2022/05/22 11:38:21;;;;;;;92.20;76.05;;;21.10;99.90;;;;;;5016279;28;20077;-48
2022/05/22 11:41:29;;;;;;;26.23;21.85;;;21.00;99.90;;;;;;5013980;28;20037;-48
2022/05/22 11:44:23;;;;;;;9.23;7.45;;;21.10;99.90;;;;;;5008723;28;21843;-52
2022/05/22 11:47:16;;;;;;;10.10;5.32;;;21.50;99.90;;;;;;5009340;28;20038;-49
2022/05/22 11:50:15;;;;;;;12.93;5.55;;;21.80;99.90;;;;;;5007643;28;20671;-51
2022/05/22 11:53:02;;;;;;;10.45;6.72;;;22.10;99.90;;;;;;5008739;28;20734;-48
2022/05/22 11:55:49;;;;;;;15.30;9.27;;;22.10;99.90;;;;;;5008946;28;20879;-51
2022/05/22 11:58:20;;;;;;;10.30;1.92;;;22.30;99.90;;;;;;5008433;28;20236;-47
2022/05/22 12:00:57;;;;;;;7.10;1.95;;;22.30;99.90;;;;;;5009222;28;20073;-49
2022/05/22 12:03:41;;;;;;;9.82;6.95;;;22.20;99.90;;;;;;5008438;28;20048;-50
2022/05/22 12:06:37;;;;;;;8.60;1.70;;;22.50;99.90;;;;;;5008592;28;20243;-47
2022/05/22 12:09:48;;;;;;;5.57;1.70;;;22.80;99.90;;;;;;5009387;28;20057;-48
2022/05/22 12:12:26;;;;;;;6.82;1.50;;;22.70;99.90;;;;;;4990344;28;20337;-50
2022/05/22 12:15:03;;;;;;;10.57;4.22;;;22.60;99.90;;;;;;4952132;28;20137;-47
2022/05/22 12:17:49;;;;;;;11.20;7.28;;;22.60;99.90;;;;;;4935977;28;20149;-47
2022/05/22 12:20:27;;;;;;;9.35;6.80;;;22.60;99.90;;;;;;4951732;28;20058;-50
2022/05/22 12:23:12;;;;;;;21.75;19.35;;;22.60;99.90;;;;;;4992440;28;20060;-49
2022/05/22 12:25:59;;;;;;;38.83;28.98;;;22.20;98.40;;;;;;4993200;28;20203;-46
2022/05/22 12:28:24;;;;;;;30.23;26.88;;;22.00;99.90;;;;;;4974844;28;20072;-47
2022/05/22 12:30:54;;;;;;;10.30;5.32;;;22.40;99.90;;;;;;4989830;28;20617;-48
2022/05/22 12:33:20;;;;;;;12.75;8.20;;;21.50;99.90;;;;;;4987868;28;20058;-46
2022/05/22 12:35:46;;;;;;;15.25;9.65;;;21.40;99.90;;;;;;4989350;28;20057;-50
2022/05/22 12:38:14;;;;;;;10.30;6.22;;;21.00;99.90;;;;;;4988263;28;20050;-51
2022/05/22 12:41:10;;;;;;;11.50;5.70;;;20.60;99.90;;;;;;4989276;28;20045;-52
2022/05/22 12:43:36;;;;;;;15.20;6.32;;;20.60;99.90;;;;;;4990414;28;20073;-50
2022/05/22 12:46:04;;;;;;;13.30;7.53;;;20.50;99.90;;;;;;4988949;28;20057;-47
2022/05/22 12:48:33;;;;;;;8.82;3.63;;;20.50;99.90;;;;;;5047009;28;20041;-51
2022/05/22 12:51:08;;;;;;;7.07;1.40;;;20.70;99.90;;;;;;5050658;28;20054;-47
2022/05/22 12:53:35;;;;;;;7.15;1.65;;;21.20;99.90;;;;;;5052471;28;20032;-50
2022/05/22 12:56:22;;;;;;;6.13;1.42;;;20.90;99.90;;;;;;5050411;28;20052;-48
2022/05/22 12:59:03;;;;;;;7.15;1.63;;;20.90;99.90;;;;;;5032840;28;20774;-48
2022/05/22 13:01:31;;;;;;;4.07;1.30;;;21.10;99.90;;;;;;5053321;28;20069;-50
2022/05/22 13:04:21;;;;;;;6.65;1.90;;;21.20;99.90;;;;;;5049084;28;20347;-48
2022/05/22 13:07:12;;;;;;;6.40;1.40;;;21.30;99.90;;;;;;5053370;28;20074;-47
2022/05/22 13:09:40;;;;;;;;;;;21.20;99.90;;;;;;5050224;28;20051;-47
2022/05/22 13:12:30;;;;;;;7.60;1.50;;;20.90;99.90;;;;;;5052778;28;19924;-47
2022/05/22 13:15:14;;;;;;;7.40;1.55;;;20.80;99.90;;;;;;5051312;28;20067;-48
2022/05/22 13:17:50;;;;;;;8.73;1.80;;;20.70;99.90;;;;;;5050983;28;20123;-47